createdAt,value
2017-11-24T00:00:12.731Z,59.90
2017-11-24T00:02:38.846Z,59.40
2017-11-24T00:05:04.966Z,59.30
2017-11-24T00:07:31.143Z,58.70
2017-11-24T00:09:57.478Z,58.90
2017-11-24T00:12:23.812Z,58.80
2017-11-24T00:14:50.130Z,58.40
2017-11-24T00:17:16.480Z,58.50
2017-11-24T00:19:42.816Z,58.70
2017-11-24T00:22:09.881Z,59.40
2017-11-24T00:24:36.018Z,59.30
2017-11-24T00:27:02.181Z,58.80
2017-11-24T00:29:28.409Z,59.30
2017-11-24T00:31:54.565Z,59.10
2017-11-24T00:34:21.647Z,59.50
2017-11-24T00:36:48.416Z,59.40
2017-11-24T00:39:14.755Z,59.70
2017-11-24T00:41:41.077Z,59.80
2017-11-24T00:44:07.356Z,60.40
2017-11-24T00:46:33.731Z,60.00
2017-11-24T00:49:00.040Z,59.50
2017-11-24T00:51:28.478Z,60.20
2017-11-24T00:53:54.638Z,59.40
2017-11-24T00:56:20.972Z,59.60
2017-11-24T00:58:47.100Z,59.10
2017-11-24T01:01:13.430Z,58.90
2017-11-24T01:03:40.135Z,58.80
2017-11-24T01:06:07.305Z,57.90
2017-11-24T01:08:33.784Z,57.80
2017-11-24T01:11:00.274Z,59.00
2017-11-24T01:13:26.626Z,59.90
2017-11-24T01:15:52.953Z,58.40
2017-11-24T01:18:19.278Z,58.50
2017-11-24T01:20:45.610Z,58.90
2017-11-24T01:23:11.969Z,58.80
2017-11-24T01:25:38.457Z,59.10
2017-11-24T01:28:04.779Z,59.30
2017-11-24T01:30:31.182Z,59.10
2017-11-24T01:32:58.410Z,59.20
2017-11-24T01:35:24.723Z,59.20
2017-11-24T01:37:51.037Z,57.90
2017-11-24T01:40:18.088Z,59.00
2017-11-24T01:42:44.971Z,58.20
2017-11-24T01:45:26.285Z,58.20
2017-11-24T01:47:52.439Z,58.40
2017-11-24T01:50:18.583Z,58.00
2017-11-24T01:52:45.457Z,57.60
2017-11-24T01:55:11.613Z,57.90
2017-11-24T01:57:38.496Z,57.80
2017-11-24T02:00:04.636Z,57.70
2017-11-24T02:02:30.814Z,58.00
2017-11-24T02:04:56.959Z,58.40
2017-11-24T02:07:23.191Z,59.20
2017-11-24T02:09:49.405Z,59.10
2017-11-24T02:12:15.521Z,59.70
2017-11-24T02:14:41.642Z,60.60
2017-11-24T02:17:08.507Z,60.80
2017-11-24T02:19:34.654Z,61.40
2017-11-24T02:22:15.520Z,62.30
2017-11-24T02:24:46.976Z,63.50
2017-11-24T02:27:13.864Z,63.30
2017-11-24T02:29:40.019Z,63.30
2017-11-24T02:32:06.135Z,64.30
2017-11-24T02:34:52.808Z,65.20
2017-11-24T02:37:30.541Z,65.30
2017-11-24T02:39:56.851Z,65.30
2017-11-24T02:42:23.230Z,65.30
2017-11-24T02:44:50.087Z,65.40
2017-11-24T02:47:17.166Z,66.20
2017-11-24T02:49:43.533Z,66.20
2017-11-24T02:52:09.951Z,66.10
2017-11-24T02:54:38.274Z,66.20
2017-11-24T02:57:04.627Z,66.20
2017-11-24T02:59:31.050Z,66.90
2017-11-24T03:01:57.450Z,67.40
2017-11-24T03:04:23.807Z,67.10
2017-11-24T03:06:50.149Z,68.30
2017-11-24T03:09:16.491Z,69.00
2017-11-24T03:11:42.927Z,67.90
2017-11-24T03:14:10.020Z,69.90
2017-11-24T03:16:37.096Z,70.80
2017-11-24T03:19:03.471Z,70.90
2017-11-24T03:21:30.409Z,71.10
2017-11-24T03:23:56.760Z,71.30
2017-11-24T03:26:23.930Z,71.40
2017-11-24T03:28:50.255Z,71.40
2017-11-24T03:31:16.838Z,72.00
2017-11-24T03:33:43.963Z,72.30
2017-11-24T03:36:11.050Z,72.40
2017-11-24T03:38:37.376Z,72.40
2017-11-24T03:41:03.849Z,72.50
2017-11-24T03:43:30.217Z,72.30
2017-11-24T03:45:56.553Z,72.90
2017-11-24T03:48:22.877Z,72.90
2017-11-24T03:50:49.211Z,72.80
2017-11-24T03:53:15.905Z,74.00
2017-11-24T03:55:42.359Z,73.60
2017-11-24T03:58:08.742Z,75.30
2017-11-24T04:00:35.099Z,75.30
2017-11-24T04:03:01.433Z,75.80
2017-11-24T04:05:28.689Z,75.90
2017-11-24T04:07:55.059Z,75.80
2017-11-24T04:10:21.414Z,75.60
2017-11-24T04:12:48.880Z,75.30
2017-11-24T04:15:15.282Z,75.30
2017-11-24T04:17:41.662Z,75.20
2017-11-24T04:20:11.539Z,75.40
2017-11-24T04:22:37.934Z,75.70
2017-11-24T04:25:04.358Z,76.00
2017-11-24T04:27:30.745Z,76.40
2017-11-24T04:29:57.081Z,76.00
2017-11-24T04:32:23.416Z,76.20
2017-11-24T04:34:49.725Z,75.30
2017-11-24T04:37:16.087Z,75.10
2017-11-24T04:39:45.247Z,75.30
2017-11-24T04:42:11.602Z,75.90
2017-11-24T04:44:37.930Z,76.90
2017-11-24T04:47:04.272Z,76.60
2017-11-24T04:49:30.629Z,76.50
2017-11-24T04:51:56.999Z,76.40
2017-11-24T04:54:23.418Z,76.80
2017-11-24T04:56:49.852Z,76.80
2017-11-24T04:59:16.289Z,76.50
2017-11-24T05:01:42.682Z,77.00
2017-11-24T05:04:09.081Z,76.70
2017-11-24T05:06:36.225Z,76.10
2017-11-24T05:09:02.554Z,76.60
2017-11-24T05:11:29.033Z,76.40
2017-11-24T05:13:56.142Z,76.40
2017-11-24T05:16:23.197Z,77.00
2017-11-24T05:18:49.644Z,77.00
2017-11-24T05:21:15.975Z,77.10
2017-11-24T05:23:42.297Z,77.20
2017-11-24T05:26:09.493Z,78.00
2017-11-24T05:28:35.894Z,78.00
2017-11-24T05:31:02.970Z,77.50
2017-11-24T05:33:30.182Z,77.00
2017-11-24T05:35:56.503Z,77.00
2017-11-24T05:38:22.819Z,77.70
2017-11-24T05:40:49.154Z,77.80
2017-11-24T05:43:16.230Z,74.10
2017-11-24T05:45:42.546Z,74.30
2017-11-24T05:48:08.883Z,74.40
2017-11-24T05:50:35.187Z,73.00
2017-11-24T05:53:01.645Z,72.40
2017-11-24T05:55:28.774Z,75.60
2017-11-24T05:57:55.088Z,75.60
2017-11-24T06:00:22.168Z,74.40
2017-11-24T06:02:48.461Z,74.40
2017-11-24T06:05:14.931Z,76.00
2017-11-24T06:07:41.283Z,76.10
2017-11-24T06:10:07.680Z,76.30
2017-11-24T06:12:34.866Z,76.80
2017-11-24T06:15:01.225Z,76.90
2017-11-24T06:17:27.529Z,76.20
2017-11-24T06:19:54.705Z,75.90
2017-11-24T06:22:21.213Z,75.60
2017-11-24T06:24:47.498Z,75.30
2017-11-24T06:27:13.631Z,75.00
2017-11-24T06:29:39.759Z,74.70
2017-11-24T06:32:05.945Z,75.10
2017-11-24T06:34:32.813Z,76.50
2017-11-24T06:36:59.670Z,75.60
2017-11-24T06:39:26.710Z,74.80
2017-11-24T06:42:06.441Z,74.80
2017-11-24T06:44:35.441Z,74.70
2017-11-24T06:47:01.761Z,75.30
2017-11-24T06:49:28.091Z,75.10
2017-11-24T06:51:54.569Z,75.50
2017-11-24T06:54:20.892Z,76.60
2017-11-24T06:56:47.205Z,76.10
2017-11-24T06:59:13.555Z,76.00
2017-11-24T07:01:40.717Z,76.30
2017-11-24T07:04:07.957Z,75.00
2017-11-24T07:06:34.641Z,74.90
2017-11-24T07:09:01.747Z,77.20
2017-11-24T07:11:28.383Z,77.30
2017-11-24T07:13:54.820Z,77.10
2017-11-24T07:16:21.162Z,76.00
2017-11-24T07:18:47.478Z,76.70
2017-11-24T07:21:13.814Z,77.60
2017-11-24T07:23:40.954Z,77.30
2017-11-24T07:26:07.254Z,77.00
2017-11-24T07:28:33.566Z,76.00
2017-11-24T07:30:59.901Z,76.10
2017-11-24T07:33:26.206Z,75.70
2017-11-24T07:35:52.518Z,76.30
2017-11-24T07:38:18.817Z,77.50
2017-11-24T07:40:45.221Z,77.00
2017-11-24T07:43:11.554Z,77.30
2017-11-24T07:45:37.881Z,77.80
2017-11-24T07:48:04.373Z,77.60
2017-11-24T07:50:30.700Z,78.60
2017-11-24T07:52:57.009Z,77.70
2017-11-24T07:55:23.329Z,77.90
2017-11-24T07:57:50.395Z,79.10
2017-11-24T08:00:16.745Z,79.10
2017-11-24T08:02:43.070Z,78.90
2017-11-24T08:05:09.403Z,78.70
2017-11-24T08:07:35.749Z,78.00
2017-11-24T08:10:02.178Z,78.10
2017-11-24T08:12:28.475Z,77.60
2017-11-24T08:14:54.805Z,76.80
2017-11-24T08:17:21.113Z,76.90
2017-11-24T08:19:47.470Z,76.50
2017-11-24T08:22:13.833Z,77.20
2017-11-24T08:24:40.917Z,77.50
2017-11-24T08:27:07.259Z,77.60
2017-11-24T08:29:33.685Z,77.50
2017-11-24T08:32:00.882Z,75.10
2017-11-24T08:34:27.326Z,75.10
2017-11-24T08:36:53.679Z,75.00
2017-11-24T08:39:20.006Z,74.00
2017-11-24T08:41:46.981Z,75.00
2017-11-24T08:44:13.135Z,75.00
2017-11-24T08:46:45.422Z,75.80
2017-11-24T08:49:18.009Z,76.30
2017-11-24T08:51:44.305Z,75.40
2017-11-24T08:54:10.706Z,74.90
2017-11-24T08:56:37.129Z,74.00
2017-11-24T08:59:03.442Z,73.60
2017-11-24T09:01:30.482Z,74.70
2017-11-24T09:03:57.553Z,74.30
2017-11-24T09:06:24.651Z,73.80
2017-11-24T09:08:50.971Z,73.80
2017-11-24T09:11:23.792Z,74.70
2017-11-24T09:13:50.182Z,73.30
2017-11-24T09:16:16.643Z,72.90
2017-11-24T09:18:42.963Z,73.90
2017-11-24T09:21:10.021Z,73.40
2017-11-24T09:23:37.133Z,74.50
2017-11-24T09:26:03.447Z,74.40
2017-11-24T09:28:31.722Z,75.00
2017-11-24T09:30:58.096Z,74.00
2017-11-24T09:33:24.455Z,75.00
2017-11-24T09:35:50.833Z,75.00
2017-11-24T09:38:17.149Z,74.90
2017-11-24T09:40:43.476Z,74.90
2017-11-24T09:43:09.864Z,74.80
2017-11-24T09:45:41.790Z,72.10
2017-11-24T09:48:08.429Z,72.10
2017-11-24T09:50:34.790Z,72.00
2017-11-24T09:53:01.113Z,72.10
2017-11-24T09:55:27.448Z,72.50
2017-11-24T09:57:53.813Z,70.20
2017-11-24T10:00:20.146Z,72.00
2017-11-24T10:02:47.206Z,69.60
2017-11-24T10:05:17.497Z,70.00
2017-11-24T10:07:43.897Z,69.90
2017-11-24T10:10:10.249Z,72.10
2017-11-24T10:12:37.389Z,70.20
2017-11-24T10:15:03.735Z,70.10
2017-11-24T10:17:30.084Z,71.30
2017-11-24T10:19:56.388Z,69.80
2017-11-24T10:22:29.637Z,70.00
2017-11-24T10:24:56.705Z,73.60
2017-11-24T10:27:23.038Z,73.50
2017-11-24T10:29:49.362Z,71.80
2017-11-24T10:32:15.751Z,71.10
2017-11-24T10:34:42.046Z,70.00
2017-11-24T10:37:08.234Z,70.30
2017-11-24T10:42:06.461Z,70.20
2017-11-24T10:44:32.808Z,70.20
2017-11-24T10:46:59.885Z,70.40
2017-11-24T10:49:26.941Z,69.70
2017-11-24T10:51:53.253Z,69.70
2017-11-24T10:54:20.345Z,69.60
2017-11-24T10:56:46.478Z,69.60
2017-11-24T10:59:15.186Z,69.60
2017-11-24T11:01:42.235Z,72.20
2017-11-24T11:04:08.671Z,72.20
2017-11-24T11:06:35.034Z,72.00
2017-11-24T11:09:01.346Z,70.00
2017-11-24T11:11:28.425Z,71.40
2017-11-24T11:13:54.554Z,71.40
2017-11-24T11:16:20.710Z,68.90
2017-11-24T11:18:50.636Z,69.20
2017-11-24T11:21:16.795Z,68.40
2017-11-24T11:23:42.916Z,70.20
2017-11-24T11:26:09.868Z,69.90
2017-11-24T11:28:36.754Z,69.30
2017-11-24T11:31:03.687Z,70.40
2017-11-24T11:33:29.846Z,70.40
2017-11-24T11:35:56.007Z,71.40
2017-11-24T11:38:26.087Z,72.40
2017-11-24T11:40:52.477Z,70.90
2017-11-24T11:43:19.341Z,70.70
2017-11-24T11:45:45.462Z,70.70
2017-11-24T11:48:11.597Z,71.00
2017-11-24T11:50:37.770Z,71.30
2017-11-24T11:53:03.977Z,71.20
2017-11-24T11:55:35.112Z,71.50
2017-11-24T11:58:01.261Z,71.50
2017-11-24T12:00:27.410Z,71.70
2017-11-24T12:02:53.597Z,71.70
2017-11-24T12:05:19.719Z,71.00
2017-11-24T12:07:45.888Z,71.00
2017-11-24T12:10:12.093Z,71.00
2017-11-24T12:12:38.940Z,69.80
2017-11-24T12:15:07.947Z,69.80
2017-11-24T12:17:34.136Z,68.00
2017-11-24T12:20:00.261Z,68.60
2017-11-24T12:22:26.434Z,68.90
2017-11-24T12:24:52.539Z,68.10
2017-11-24T12:27:19.401Z,70.00
2017-11-24T12:29:46.305Z,69.00
2017-11-24T12:32:19.619Z,69.00
2017-11-24T12:34:45.777Z,70.20
2017-11-24T12:37:11.921Z,69.50
2017-11-24T12:39:38.077Z,68.80
2017-11-24T12:42:05.006Z,69.60
2017-11-24T12:44:31.128Z,69.40
2017-11-24T12:47:12.202Z,71.70
2017-11-24T12:49:43.086Z,70.40
2017-11-24T12:52:10.051Z,71.70
2017-11-24T12:54:40.381Z,71.80
2017-11-24T12:57:08.474Z,70.10
2017-11-24T12:59:35.501Z,69.30
2017-11-24T13:02:01.838Z,69.30
2017-11-24T13:04:28.165Z,69.00
2017-11-24T13:06:54.557Z,70.20
2017-11-24T13:09:20.888Z,69.80
2017-11-24T13:11:51.214Z,70.00
2017-11-24T13:14:17.590Z,70.00
2017-11-24T13:16:43.960Z,69.80
2017-11-24T13:19:10.299Z,69.60
2017-11-24T13:21:37.095Z,70.40
2017-11-24T13:24:03.443Z,70.20
2017-11-24T13:26:29.804Z,69.80
2017-11-24T13:29:02.437Z,71.30
2017-11-24T13:31:29.525Z,70.10
2017-11-24T13:33:55.880Z,70.10
2017-11-24T13:36:22.261Z,70.10
2017-11-24T13:38:48.614Z,69.40
2017-11-24T13:41:14.995Z,69.70
2017-11-24T13:43:41.330Z,70.00
2017-11-24T13:46:09.567Z,68.30
2017-11-24T13:48:35.981Z,69.90
2017-11-24T13:51:02.291Z,69.50
2017-11-24T13:53:28.623Z,68.00
2017-11-24T13:55:55.039Z,67.70
2017-11-24T13:58:21.363Z,68.10
2017-11-24T14:00:47.714Z,68.70
2017-11-24T14:03:14.779Z,67.50
2017-11-24T14:05:44.762Z,67.50
2017-11-24T14:08:11.069Z,67.30
2017-11-24T14:10:37.468Z,67.30
2017-11-24T14:13:03.812Z,69.10
2017-11-24T14:15:30.265Z,70.60
2017-11-24T14:17:56.841Z,69.10
2017-11-24T14:20:23.938Z,67.30
2017-11-24T14:22:50.267Z,68.10
2017-11-24T14:25:20.792Z,68.10
2017-11-24T14:27:47.853Z,70.80
2017-11-24T14:30:14.175Z,70.80
2017-11-24T14:32:40.567Z,70.20
2017-11-24T14:35:06.911Z,68.70
2017-11-24T14:37:33.250Z,68.30
2017-11-24T14:39:59.570Z,68.40
2017-11-24T14:42:32.038Z,68.30
2017-11-24T14:44:58.443Z,68.90
2017-11-24T14:47:24.803Z,68.00
2017-11-24T14:49:51.846Z,68.90
2017-11-24T14:52:18.208Z,69.10
2017-11-24T14:54:44.607Z,69.50
2017-11-24T14:57:11.678Z,67.70
2017-11-24T14:59:43.615Z,67.60
2017-11-24T15:02:10.069Z,67.20
2017-11-24T15:04:36.394Z,67.50
2017-11-24T15:07:02.838Z,67.50
2017-11-24T15:09:29.259Z,68.70
2017-11-24T15:11:55.963Z,67.60
2017-11-24T15:14:23.033Z,68.80
2017-11-24T15:16:50.093Z,67.90
2017-11-24T15:19:17.294Z,67.80
2017-11-24T15:21:43.697Z,68.00
2017-11-24T15:24:13.314Z,67.90
2017-11-24T15:26:39.634Z,69.10
2017-11-24T15:29:05.995Z,67.90
2017-11-24T15:31:32.461Z,69.10
2017-11-24T15:33:58.865Z,68.80
2017-11-24T15:36:25.237Z,68.40
2017-11-24T15:38:51.602Z,69.20
2017-11-24T15:41:17.953Z,69.60
2017-11-24T15:43:44.279Z,70.00
2017-11-24T15:46:10.636Z,71.00
2017-11-24T15:48:36.962Z,70.40
2017-11-24T15:51:09.708Z,71.70
2017-11-24T15:53:36.113Z,71.00
2017-11-24T15:56:02.442Z,71.60
2017-11-24T15:58:28.781Z,72.10
2017-11-24T16:00:55.306Z,71.90
2017-11-24T16:03:22.425Z,70.40
2017-11-24T16:05:48.743Z,70.40
2017-11-24T16:08:15.745Z,72.10
2017-11-24T16:10:42.089Z,72.40
2017-11-24T16:13:08.483Z,73.30
2017-11-24T16:15:34.841Z,72.70
2017-11-24T16:18:01.952Z,73.60
2017-11-24T16:20:28.345Z,73.60
2017-11-24T16:22:57.067Z,73.10
2017-11-24T16:25:24.173Z,72.70
2017-11-24T16:27:50.548Z,72.60
2017-11-24T16:30:17.009Z,73.00
2017-11-24T16:32:43.414Z,72.40
2017-11-24T16:35:10.554Z,71.60
2017-11-24T16:37:43.020Z,71.20
2017-11-24T16:40:09.465Z,71.20
2017-11-24T16:42:35.947Z,71.00
2017-11-24T16:45:02.374Z,70.20
2017-11-24T16:47:28.785Z,71.30
2017-11-24T16:49:55.854Z,72.20
2017-11-24T16:52:22.208Z,72.40
2017-11-24T16:54:52.357Z,72.10
2017-11-24T16:57:19.642Z,72.50
2017-11-24T16:59:46.169Z,71.60
2017-11-24T17:02:13.247Z,72.50
2017-11-24T17:04:39.618Z,72.40
2017-11-24T17:07:05.956Z,72.70
2017-11-24T17:09:32.386Z,73.50
2017-11-24T17:11:58.810Z,73.30
2017-11-24T17:14:25.194Z,73.10
2017-11-24T17:16:51.545Z,72.90
2017-11-24T17:19:17.889Z,72.30
2017-11-24T17:21:45.027Z,73.90
2017-11-24T17:24:11.497Z,73.90
2017-11-24T17:26:37.818Z,73.60
2017-11-24T17:29:04.315Z,73.50
2017-11-24T17:31:30.714Z,73.70
2017-11-24T17:33:57.005Z,73.70
2017-11-24T17:36:24.065Z,73.80
2017-11-24T17:38:50.419Z,73.80
2017-11-24T17:41:17.122Z,73.90
2017-11-24T17:43:43.463Z,73.80
2017-11-24T17:46:09.865Z,73.80
2017-11-24T17:48:36.194Z,74.00
2017-11-24T17:51:02.772Z,73.80
2017-11-24T17:53:30.185Z,73.80
2017-11-24T17:55:57.842Z,74.60
2017-11-24T17:58:24.041Z,73.90
2017-11-24T18:00:56.470Z,74.10
2017-11-24T18:03:24.719Z,73.90
2017-11-24T18:05:50.930Z,73.90
2017-11-24T18:08:17.231Z,73.90
2017-11-24T18:10:43.388Z,74.20
2017-11-24T18:13:09.543Z,73.90
2017-11-24T18:15:39.261Z,74.10
2017-11-24T18:18:05.585Z,73.60
2017-11-24T18:20:32.535Z,73.60
2017-11-24T18:22:58.690Z,73.50
2017-11-24T18:25:24.827Z,73.00
2017-11-24T18:27:51.015Z,72.70
2017-11-24T18:30:17.198Z,73.30
2017-11-24T18:32:46.521Z,73.30
2017-11-24T18:35:12.682Z,72.10
2017-11-24T18:37:38.813Z,71.40
2017-11-24T18:40:05.110Z,70.70
2017-11-24T18:42:31.278Z,71.10
2017-11-24T18:44:58.217Z,71.10
2017-11-24T18:47:29.523Z,71.10
2017-11-24T18:49:56.657Z,71.40
2017-11-24T18:52:22.795Z,70.80
2017-11-24T18:54:49.780Z,71.50
2017-11-24T18:57:15.934Z,72.10
2017-11-24T18:59:42.081Z,71.80
2017-11-24T19:02:09.206Z,71.60
2017-11-24T19:04:36.554Z,71.60
2017-11-24T19:07:02.699Z,71.40
2017-11-24T19:09:29.679Z,72.20
2017-11-24T19:11:56.626Z,72.40
2017-11-24T19:14:22.809Z,72.40
2017-11-24T19:16:49.102Z,73.00
2017-11-24T19:19:16.026Z,72.70
2017-11-24T19:21:42.183Z,72.70
2017-11-24T19:24:09.102Z,73.60
2017-11-24T19:26:35.256Z,73.50
2017-11-24T19:29:02.142Z,73.30
2017-11-24T19:31:29.057Z,73.50
2017-11-24T19:33:55.229Z,73.50
2017-11-24T19:36:21.471Z,73.90
2017-11-24T19:38:47.653Z,74.20
2017-11-24T19:41:13.866Z,73.40
2017-11-24T19:43:40.753Z,74.30
2017-11-24T19:46:06.894Z,74.20
2017-11-24T19:48:33.792Z,73.40
2017-11-24T19:50:59.974Z,73.60
2017-11-24T19:53:26.181Z,74.30
2017-11-24T19:55:52.906Z,74.10
2017-11-24T19:58:19.043Z,73.30
2017-11-24T20:00:45.247Z,73.80
2017-11-24T20:03:11.406Z,74.40
2017-11-24T20:05:37.634Z,74.10
2017-11-24T20:08:04.565Z,74.40
2017-11-24T20:10:31.444Z,74.60
2017-11-24T20:12:57.562Z,74.60
2017-11-24T20:15:23.744Z,75.10
2017-11-24T20:17:49.907Z,74.80
2017-11-24T20:20:16.056Z,74.50
2017-11-24T20:22:42.153Z,75.00
2017-11-24T20:25:08.313Z,75.40
2017-11-24T20:27:35.209Z,75.40
2017-11-24T20:30:02.236Z,74.20
2017-11-24T20:32:28.385Z,74.40
2017-11-24T20:34:55.325Z,74.70
2017-11-24T20:37:21.530Z,74.40
2017-11-24T20:39:47.705Z,74.40
2017-11-24T20:42:14.169Z,75.80
2017-11-24T20:44:40.341Z,75.30
2017-11-24T20:47:07.222Z,75.50
2017-11-24T20:49:33.408Z,75.50
2017-11-24T20:52:00.269Z,75.00
2017-11-24T20:54:37.218Z,75.00
2017-11-24T20:59:52.051Z,75.00
2017-11-24T21:02:18.164Z,75.00
2017-11-24T21:04:44.430Z,75.50
2017-11-24T21:07:11.350Z,74.30
2017-11-24T21:09:37.492Z,74.30
2017-11-24T21:12:03.646Z,74.90
2017-11-24T21:14:29.867Z,75.40
2017-11-24T21:16:56.092Z,76.00
2017-11-24T21:19:22.972Z,76.50
2017-11-24T21:21:49.089Z,76.50
2017-11-24T21:24:16.009Z,76.10
2017-11-24T21:26:42.148Z,76.00
2017-11-24T21:29:08.341Z,75.80
2017-11-24T21:31:34.495Z,75.80
2017-11-24T21:34:00.617Z,75.60
2017-11-24T21:36:26.757Z,75.70
2017-11-24T21:38:52.892Z,75.80
2017-11-24T21:41:19.026Z,75.80
2017-11-24T21:43:45.178Z,75.70
2017-11-24T21:46:11.298Z,75.60
2017-11-24T21:48:37.530Z,75.60
2017-11-24T21:51:04.394Z,75.80
2017-11-24T21:53:30.665Z,75.80
2017-11-24T21:55:56.862Z,76.10
2017-11-24T21:58:23.723Z,75.20
2017-11-24T22:00:50.593Z,75.60
2017-11-24T22:03:16.798Z,75.60
2017-11-24T22:05:43.724Z,75.60
2017-11-24T22:08:09.873Z,75.60
2017-11-24T22:10:36.064Z,75.60
2017-11-24T22:13:02.210Z,75.90
2017-11-24T22:15:28.375Z,76.20
2017-11-24T22:17:54.561Z,74.80
2017-11-24T22:20:21.461Z,74.40
2017-11-24T22:22:47.578Z,74.40
2017-11-24T22:25:13.717Z,75.10
2017-11-24T22:27:39.837Z,74.50
2017-11-24T22:30:06.774Z,75.80
2017-11-24T22:32:32.906Z,75.60
2017-11-24T22:34:59.813Z,74.80
2017-11-24T22:37:25.944Z,74.80
2017-11-24T22:39:52.235Z,74.80
2017-11-24T22:42:18.432Z,74.90
2017-11-24T22:44:44.580Z,75.10
2017-11-24T22:47:11.517Z,75.10
2017-11-24T22:49:38.408Z,75.10
2017-11-24T22:52:04.620Z,75.20
2017-11-24T22:54:30.765Z,75.90
2017-11-24T22:56:58.560Z,75.50
2017-11-24T22:59:25.306Z,75.00
2017-11-24T23:01:51.531Z,74.80
2017-11-24T23:04:17.684Z,74.20
2017-11-24T23:06:43.967Z,73.70
2017-11-24T23:09:10.897Z,73.40
2017-11-24T23:11:37.174Z,73.50
2017-11-24T23:14:04.227Z,74.50
2017-11-24T23:16:30.468Z,74.50
2017-11-24T23:18:56.619Z,74.40
2017-11-24T23:21:22.772Z,74.80
2017-11-24T23:23:50.782Z,74.50
2017-11-24T23:26:16.929Z,75.10
2017-11-24T23:28:43.062Z,75.40
2017-11-24T23:31:09.192Z,75.20
2017-11-24T23:33:35.301Z,74.70
2017-11-24T23:36:02.171Z,73.70
2017-11-24T23:38:28.282Z,73.70
2017-11-24T23:40:54.532Z,73.80
2017-11-24T23:43:21.401Z,74.50
2017-11-24T23:45:48.490Z,74.80
2017-11-24T23:48:14.603Z,74.80
2017-11-24T23:50:40.782Z,75.00
2017-11-24T23:53:07.018Z,75.10
2017-11-24T23:55:33.293Z,75.30
2017-11-24T23:57:59.408Z,75.60
